createdAt,value
2018-09-01T00:01:27.510Z,100.00
2018-09-01T00:03:56.665Z,100.00
2018-09-01T00:06:25.559Z,100.00
2018-09-01T00:08:54.120Z,100.00
2018-09-01T00:11:24.042Z,100.00
2018-09-01T00:13:52.948Z,100.00
2018-09-01T00:16:22.424Z,100.00
2018-09-01T00:18:53.830Z,100.00
2018-09-01T00:21:23.186Z,100.00
2018-09-01T00:23:52.094Z,100.00
2018-09-01T00:26:21.644Z,100.00
2018-09-01T00:28:50.680Z,100.00
2018-09-01T00:31:20.011Z,100.00
2018-09-01T00:33:48.955Z,100.00
2018-09-01T00:36:17.864Z,100.00
2018-09-01T00:38:52.071Z,100.00
2018-09-01T00:41:21.673Z,100.00
2018-09-01T00:43:52.700Z,100.00
2018-09-01T00:46:21.427Z,100.00
2018-09-01T00:48:51.251Z,100.00
2018-09-01T00:51:21.382Z,100.00
2018-09-01T00:53:51.596Z,100.00
2018-09-01T00:56:20.515Z,100.00
2018-09-01T00:58:49.245Z,100.00
2018-09-01T01:01:18.243Z,100.00
2018-09-01T01:03:48.069Z,100.00
2018-09-01T01:06:16.730Z,100.00
2018-09-01T01:08:47.328Z,100.00
2018-09-01T01:11:17.777Z,100.00
2018-09-01T01:13:46.724Z,100.00
2018-09-01T01:16:15.955Z,100.00
2018-09-01T01:18:44.798Z,100.00
2018-09-01T01:21:13.770Z,100.00
2018-09-01T01:23:42.417Z,100.00
2018-09-01T01:26:11.181Z,100.00
2018-09-01T01:28:40.631Z,100.00
2018-09-01T01:31:09.349Z,100.00
2018-09-01T01:33:38.161Z,100.00
2018-09-01T01:36:07.055Z,100.00
2018-09-01T01:38:35.735Z,100.00
2018-09-01T01:41:04.415Z,100.00
2018-09-01T01:43:33.020Z,100.00
2018-09-01T01:46:02.539Z,100.00
2018-09-01T01:48:31.151Z,100.00
2018-09-01T01:50:59.953Z,100.00
2018-09-01T01:53:29.718Z,100.00
2018-09-01T01:55:58.400Z,100.00
2018-09-01T01:58:27.572Z,100.00
2018-09-01T02:00:56.295Z,100.00
2018-09-01T02:03:25.245Z,100.00
2018-09-01T02:05:53.810Z,100.00
2018-09-01T02:08:23.480Z,100.00
2018-09-01T02:10:53.210Z,100.00
2018-09-01T02:13:24.069Z,100.00
2018-09-01T02:15:52.925Z,100.00
2018-09-01T02:18:22.344Z,100.00
2018-09-01T02:20:51.050Z,100.00
2018-09-01T02:23:20.239Z,100.00
2018-09-01T02:25:48.980Z,100.00
2018-09-01T02:28:17.726Z,100.00
2018-09-01T02:30:46.374Z,100.00
2018-09-01T02:33:15.222Z,100.00
2018-09-01T02:35:46.134Z,100.00
2018-09-01T02:38:14.932Z,100.00
2018-09-01T02:40:44.280Z,100.00
2018-09-01T02:43:13.054Z,100.00
2018-09-01T02:45:42.774Z,100.00
2018-09-01T02:48:12.474Z,100.00
2018-09-01T02:50:41.781Z,100.00
2018-09-01T02:53:11.229Z,100.00
2018-09-01T02:55:40.718Z,100.00
2018-09-01T02:58:09.328Z,100.00
2018-09-01T03:00:38.977Z,100.00
2018-09-01T03:03:08.207Z,100.00
2018-09-01T03:05:37.037Z,100.00
2018-09-01T03:08:05.822Z,100.00
2018-09-01T03:10:34.960Z,100.00
2018-09-01T03:13:03.820Z,100.00
2018-09-01T03:15:32.536Z,100.00
2018-09-01T03:18:01.555Z,100.00
2018-09-01T03:20:30.231Z,100.00
2018-09-01T03:22:59.025Z,100.00
2018-09-01T03:25:28.500Z,100.00
2018-09-01T03:27:58.397Z,100.00
2018-09-01T03:30:27.132Z,100.00
2018-09-01T03:32:55.842Z,100.00
2018-09-01T03:35:24.465Z,100.00
2018-09-01T03:37:53.081Z,100.00
2018-09-01T03:40:22.710Z,100.00
2018-09-01T03:42:51.302Z,100.00
2018-09-01T03:45:20.416Z,100.00
2018-09-01T03:47:51.286Z,100.00
2018-09-01T03:50:20.600Z,100.00
2018-09-01T03:52:50.065Z,100.00
2018-09-01T03:55:19.531Z,100.00
2018-09-01T03:57:48.286Z,100.00
2018-09-01T04:00:17.366Z,100.00
2018-09-01T04:02:46.512Z,100.00
2018-09-01T04:05:15.906Z,100.00
2018-09-01T04:07:44.905Z,100.00
2018-09-01T04:10:13.482Z,100.00
2018-09-01T04:12:44.000Z,100.00
2018-09-01T04:15:14.103Z,100.00
2018-09-01T04:17:43.867Z,100.00
2018-09-01T04:20:12.446Z,100.00
2018-09-01T04:22:41.456Z,100.00
2018-09-01T04:25:10.527Z,100.00
2018-09-01T04:27:39.455Z,100.00
2018-09-01T04:30:09.436Z,100.00
2018-09-01T04:32:38.572Z,100.00
2018-09-01T04:35:07.345Z,100.00
2018-09-01T04:37:37.046Z,100.00
2018-09-01T04:40:06.210Z,100.00
2018-09-01T04:42:35.815Z,100.00
2018-09-01T04:45:04.568Z,100.00
2018-09-01T04:47:33.561Z,100.00
2018-09-01T04:50:02.801Z,100.00
2018-09-01T04:52:32.126Z,100.00
2018-09-01T04:55:01.333Z,100.00
2018-09-01T04:57:30.322Z,100.00
2018-09-01T04:59:59.095Z,100.00
2018-09-01T05:02:29.243Z,100.00
2018-09-01T05:04:58.041Z,100.00
2018-09-01T05:07:26.713Z,100.00
2018-09-01T05:09:55.681Z,100.00
2018-09-01T05:12:24.508Z,100.00
2018-09-01T05:14:53.942Z,100.00
2018-09-01T05:17:22.653Z,100.00
2018-09-01T05:19:51.446Z,100.00
2018-09-01T05:22:20.751Z,100.00
2018-09-01T05:24:49.607Z,100.00
2018-09-01T05:27:18.882Z,100.00
2018-09-01T05:29:48.083Z,100.00
2018-09-01T05:32:17.602Z,100.00
2018-09-01T05:34:46.227Z,100.00
2018-09-01T05:37:16.567Z,100.00
2018-09-01T05:39:45.356Z,100.00
2018-09-01T05:42:14.473Z,100.00
2018-09-01T05:44:43.787Z,100.00
2018-09-01T05:47:12.898Z,100.00
2018-09-01T05:49:42.782Z,100.00
2018-09-01T05:52:14.300Z,100.00
2018-09-01T05:54:44.876Z,100.00
2018-09-01T05:57:13.754Z,100.00
2018-09-01T05:59:42.882Z,100.00
2018-09-01T06:02:12.222Z,100.00
2018-09-01T06:04:40.964Z,100.00
2018-09-01T06:07:09.846Z,100.00
2018-09-01T06:09:39.084Z,100.00
2018-09-01T06:12:08.066Z,100.00
2018-09-01T06:14:37.196Z,100.00
2018-09-01T06:17:06.686Z,100.00
2018-09-01T06:19:36.453Z,100.00
2018-09-01T06:22:05.998Z,100.00
2018-09-01T06:25:59.198Z,100.00
2018-09-01T06:29:05.476Z,100.00
2018-09-01T06:31:35.125Z,100.00
2018-09-01T06:34:03.893Z,100.00
2018-09-01T06:36:32.624Z,100.00
2018-09-01T06:39:01.293Z,100.00
2018-09-01T06:41:31.757Z,100.00
2018-09-01T06:44:01.071Z,100.00
2018-09-01T06:46:29.782Z,100.00
2018-09-01T06:48:59.083Z,97.40
2018-09-01T06:51:28.369Z,97.60
2018-09-01T06:53:57.041Z,97.45
2018-09-01T06:56:25.753Z,96.90
2018-09-01T06:58:54.837Z,95.42
2018-09-01T07:01:23.482Z,94.80
2018-09-01T07:03:53.648Z,94.54
2018-09-01T07:06:22.913Z,93.54
2018-09-01T07:08:51.856Z,92.01
2018-09-01T07:11:20.742Z,91.94
2018-09-01T07:13:49.764Z,91.71
2018-09-01T07:16:18.841Z,90.72
2018-09-01T07:18:47.597Z,90.70
2018-09-01T07:21:17.716Z,88.91
2018-09-01T07:23:46.561Z,88.63
2018-09-01T07:26:15.552Z,87.19
2018-09-01T07:28:44.493Z,86.82
2018-09-01T07:31:13.424Z,86.09
2018-09-01T07:33:42.113Z,86.02
2018-09-01T07:36:10.837Z,83.69
2018-09-01T07:38:39.624Z,80.37
2018-09-01T07:41:08.493Z,79.42
2018-09-01T07:43:38.240Z,78.27
2018-09-01T07:46:07.321Z,74.89
2018-09-01T07:48:36.012Z,75.29
2018-09-01T07:51:06.441Z,74.81
2018-09-01T07:53:35.024Z,74.84
2018-09-01T07:56:04.281Z,72.10
2018-09-01T07:58:32.937Z,72.66
2018-09-01T08:01:01.723Z,72.04
2018-09-01T08:03:30.663Z,72.69
2018-09-01T08:05:59.241Z,72.93
2018-09-01T08:08:29.338Z,72.18
2018-09-01T08:10:58.448Z,70.69
2018-09-01T08:13:30.887Z,72.07
2018-09-01T08:16:00.527Z,69.74
2018-09-01T08:18:30.097Z,69.15
2018-09-01T08:20:59.584Z,68.46
2018-09-01T08:23:28.234Z,68.01
2018-09-01T08:25:56.927Z,68.14
2018-09-01T08:28:26.028Z,68.23
2018-09-01T08:30:54.943Z,67.94
2018-09-01T08:33:23.629Z,69.09
2018-09-01T08:35:53.752Z,67.74
2018-09-01T08:38:22.948Z,67.15
2018-09-01T08:40:53.138Z,66.34
2018-09-01T08:43:22.055Z,66.16
2018-09-01T08:45:51.622Z,67.45
2018-09-01T08:48:22.754Z,67.35
2018-09-01T08:50:51.833Z,66.49
2018-09-01T08:53:20.492Z,65.54
2018-09-01T08:55:49.472Z,64.39
2018-09-01T08:58:18.579Z,63.95
2018-09-01T09:00:47.439Z,65.94
2018-09-01T09:03:16.253Z,66.72
2018-09-01T09:05:45.199Z,65.22
2018-09-01T09:08:13.922Z,64.85
2018-09-01T09:10:42.794Z,64.92
2018-09-01T09:13:12.433Z,64.90
2018-09-01T09:15:41.268Z,63.74
2018-09-01T09:18:10.408Z,64.74
2018-09-01T09:20:39.893Z,63.61
2018-09-01T09:23:08.904Z,65.67
2018-09-01T09:25:38.202Z,63.87
2018-09-01T09:28:07.673Z,62.76
2018-09-01T09:30:36.583Z,61.60
2018-09-01T09:33:06.458Z,59.82
2018-09-01T09:35:35.392Z,59.76
2018-09-01T09:38:04.438Z,58.89
2018-09-01T09:40:33.401Z,58.68
2018-09-01T09:43:02.969Z,58.98
2018-09-01T09:45:31.786Z,57.66
2018-09-01T09:48:01.207Z,59.34
2018-09-01T09:50:30.034Z,60.82
2018-09-01T09:53:00.516Z,62.02
2018-09-01T09:55:29.763Z,61.33
2018-09-01T09:57:58.534Z,61.57
2018-09-01T10:01:05.924Z,61.07
2018-09-01T10:03:36.497Z,59.91
2018-09-01T10:06:05.918Z,60.10
2018-09-01T10:08:34.688Z,59.01
2018-09-01T10:11:04.133Z,58.69
2018-09-01T10:13:33.363Z,58.45
2018-09-01T10:16:02.136Z,56.57
2018-09-01T10:18:32.383Z,58.05
2018-09-01T10:21:01.153Z,58.79
2018-09-01T10:23:31.309Z,57.74
2018-09-01T10:26:00.641Z,57.00
2018-09-01T10:28:29.649Z,56.76
2018-09-01T10:30:58.585Z,56.81
2018-09-01T10:33:28.033Z,56.92
2018-09-01T10:35:57.253Z,56.63
2018-09-01T10:38:26.844Z,56.93
2018-09-01T10:40:55.703Z,53.96
2018-09-01T10:43:25.633Z,54.23
2018-09-01T10:45:55.194Z,55.65
2018-09-01T10:48:24.126Z,56.37
2018-09-01T10:50:52.882Z,56.09
2018-09-01T10:53:21.923Z,56.76
2018-09-01T10:55:51.092Z,55.71
2018-09-01T10:58:20.013Z,54.91
2018-09-01T11:00:48.757Z,54.72
2018-09-01T11:03:17.876Z,55.37
2018-09-01T11:05:47.266Z,55.27
2018-09-01T11:08:16.162Z,56.41
2018-09-01T11:10:46.211Z,56.79
2018-09-01T11:13:14.998Z,58.88
2018-09-01T11:15:43.935Z,58.87
2018-09-01T11:18:13.378Z,57.14
2018-09-01T11:20:42.051Z,58.16
2018-09-01T11:23:10.838Z,58.08
2018-09-01T11:25:41.335Z,57.27
2018-09-01T11:28:10.358Z,56.41
2018-09-01T11:30:39.228Z,55.39
2018-09-01T11:33:08.423Z,55.74
2018-09-01T11:35:37.682Z,54.27
2018-09-01T11:38:06.409Z,51.36
2018-09-01T11:40:35.205Z,51.36
2018-09-01T11:43:04.518Z,50.33
2018-09-01T11:45:33.608Z,50.23
2018-09-01T11:48:02.285Z,51.06
2018-09-01T11:50:31.285Z,51.30
2018-09-01T11:53:00.037Z,50.73
2018-09-01T11:55:28.800Z,52.37
2018-09-01T11:57:57.690Z,51.84
2018-09-01T12:00:26.963Z,50.50
2018-09-01T12:02:56.259Z,48.77
2018-09-01T12:05:25.393Z,48.72
2018-09-01T12:07:54.184Z,48.01
2018-09-01T12:10:23.864Z,49.11
2018-09-01T12:12:53.046Z,49.46
2018-09-01T12:15:23.215Z,49.90
2018-09-01T12:17:51.943Z,50.41
2018-09-01T12:20:20.888Z,49.35
2018-09-01T12:22:50.010Z,50.77
2018-09-01T12:25:18.914Z,51.24
2018-09-01T12:27:48.295Z,52.05
2018-09-01T12:30:17.798Z,52.80
2018-09-01T12:32:46.836Z,52.06
2018-09-01T12:35:15.736Z,50.79
2018-09-01T12:37:44.633Z,50.31
2018-09-01T12:40:14.464Z,50.07
2018-09-01T12:42:44.889Z,49.30
2018-09-01T12:45:13.944Z,47.77
2018-09-01T12:47:42.658Z,47.72
2018-09-01T12:50:11.599Z,46.40
2018-09-01T12:52:40.738Z,46.71
2018-09-01T12:55:09.442Z,46.75
2018-09-01T12:57:38.199Z,45.86
2018-09-01T13:00:07.347Z,45.54
2018-09-01T13:02:36.594Z,45.41
2018-09-01T13:05:05.759Z,44.46
2018-09-01T13:07:34.740Z,46.15
2018-09-01T13:10:03.557Z,43.76
2018-09-01T13:12:32.339Z,43.51
2018-09-01T13:15:01.333Z,43.99
2018-09-01T13:17:31.233Z,42.31
2018-09-01T13:20:00.280Z,43.11
2018-09-01T13:22:30.320Z,43.14
2018-09-01T13:24:59.356Z,42.91
2018-09-01T13:27:28.112Z,43.08
2018-09-01T13:29:56.958Z,43.58
2018-09-01T13:32:26.368Z,43.59
2018-09-01T13:34:55.488Z,42.54
2018-09-01T13:37:24.385Z,42.75
2018-09-01T13:39:53.158Z,42.84
2018-09-01T13:42:22.140Z,41.87
2018-09-01T13:44:52.367Z,42.63
2018-09-01T13:47:21.118Z,42.64
2018-09-01T13:49:50.024Z,41.50
2018-09-01T13:52:18.974Z,41.54
2018-09-01T13:54:47.963Z,42.03
2018-09-01T13:57:16.720Z,41.99
2018-09-01T13:59:45.578Z,43.26
2018-09-01T14:02:14.920Z,44.92
2018-09-01T14:04:43.728Z,42.48
2018-09-01T14:07:12.490Z,42.38
2018-09-01T14:09:41.219Z,43.21
2018-09-01T14:12:10.488Z,43.75
2018-09-01T14:14:44.865Z,43.54
2018-09-01T14:17:14.748Z,44.54
2018-09-01T14:19:44.362Z,43.28
2018-09-01T14:22:13.733Z,42.34
2018-09-01T14:24:42.689Z,43.96
2018-09-01T14:27:12.068Z,42.02
2018-09-01T14:29:40.674Z,41.54
2018-09-01T14:32:10.116Z,42.73
2018-09-01T14:34:38.944Z,43.14
2018-09-01T14:37:09.368Z,42.70
2018-09-01T14:39:38.195Z,43.30
2018-09-01T14:42:08.533Z,42.91
2018-09-01T14:44:37.539Z,43.42
2018-09-01T14:47:06.472Z,42.55
2018-09-01T14:49:35.192Z,42.77
2018-09-01T14:52:05.219Z,42.83
2018-09-01T14:54:34.421Z,42.87
2018-09-01T14:57:03.310Z,43.35
2018-09-01T14:59:32.991Z,42.71
2018-09-01T15:02:01.988Z,41.25
2018-09-01T15:04:31.040Z,39.53
2018-09-01T15:06:59.905Z,40.97
2018-09-01T15:09:28.850Z,40.38
2018-09-01T15:11:58.865Z,41.11
2018-09-01T15:14:27.978Z,40.47
2018-09-01T15:16:56.730Z,40.49
2018-09-01T15:19:25.808Z,38.71
2018-09-01T15:21:54.915Z,41.01
2018-09-01T15:24:24.189Z,40.09
2018-09-01T15:26:54.480Z,39.64
2018-09-01T15:29:23.523Z,40.00
2018-09-01T15:31:52.770Z,39.81
2018-09-01T15:34:22.492Z,39.71
2018-09-01T15:36:52.305Z,39.55
2018-09-01T15:39:22.654Z,39.22
2018-09-01T15:41:51.595Z,39.96
2018-09-01T15:46:48.869Z,40.84
2018-09-01T15:49:18.176Z,41.31
2018-09-01T15:51:47.163Z,42.35
2018-09-01T15:54:16.451Z,42.17
2018-09-01T15:56:45.199Z,41.86
2018-09-01T15:59:14.176Z,42.18
2018-09-01T16:01:43.445Z,42.36
2018-09-01T16:04:13.800Z,42.56
2018-09-01T16:06:42.966Z,43.30
2018-09-01T16:09:12.147Z,43.23
2018-09-01T16:11:41.491Z,44.09
2018-09-01T16:14:10.110Z,44.20
2018-09-01T16:16:38.749Z,43.78
2018-09-01T16:19:07.954Z,44.45
2018-09-01T16:21:37.336Z,44.82
2018-09-01T16:24:06.379Z,45.75
2018-09-01T16:26:35.763Z,46.89
2018-09-01T16:29:05.090Z,48.47
2018-09-01T16:31:36.040Z,51.96
2018-09-01T16:34:04.887Z,54.35
2018-09-01T16:36:34.911Z,54.62
2018-09-01T16:39:05.549Z,57.34
2018-09-01T16:41:37.919Z,57.29
2018-09-01T16:44:08.139Z,57.71
2018-09-01T16:46:38.036Z,58.60
2018-09-01T16:49:07.937Z,58.19
2018-09-01T16:51:38.469Z,59.25
2018-09-01T16:54:07.016Z,60.19
2018-09-01T16:56:36.137Z,61.02
2018-09-01T16:59:06.721Z,60.58
2018-09-01T17:01:35.437Z,61.42
2018-09-01T17:04:04.962Z,63.79
2018-09-01T17:06:33.879Z,65.46
2018-09-01T17:09:03.816Z,65.89
2018-09-01T17:11:34.391Z,66.49
2018-09-01T17:14:02.984Z,66.48
2018-09-01T17:16:31.695Z,66.49
2018-09-01T17:19:01.268Z,66.16
2018-09-01T17:21:30.137Z,66.96
2018-09-01T17:23:59.099Z,67.25
2018-09-01T17:26:31.242Z,67.09
2018-09-01T17:29:00.917Z,67.68
2018-09-01T17:31:30.135Z,67.76
2018-09-01T17:33:59.628Z,68.35
2018-09-01T17:36:28.506Z,67.62
2018-09-01T17:38:58.208Z,68.57
2018-09-01T17:41:27.926Z,68.45
2018-09-01T17:43:57.133Z,69.31
2018-09-01T17:46:26.319Z,70.32
2018-09-01T17:48:55.761Z,70.35
2018-09-01T17:51:26.012Z,71.02
2018-09-01T17:53:55.622Z,70.64
2018-09-01T17:56:25.358Z,71.55
2018-09-01T17:58:55.355Z,71.51
2018-09-01T18:01:26.497Z,73.14
2018-09-01T18:03:55.987Z,72.54
2018-09-01T18:06:26.031Z,72.00
2018-09-01T18:08:55.200Z,72.81
2018-09-01T18:11:23.786Z,73.21
2018-09-01T18:13:53.540Z,74.29
2018-09-01T18:16:22.398Z,74.16
2018-09-01T18:18:51.220Z,74.37
2018-09-01T18:21:20.566Z,74.05
2018-09-01T18:23:49.327Z,74.74
2018-09-01T18:26:18.914Z,75.15
2018-09-01T18:28:47.854Z,74.90
2018-09-01T18:31:16.842Z,76.08
2018-09-01T18:33:45.521Z,78.10
2018-09-01T18:36:14.731Z,77.71
2018-09-01T18:38:43.939Z,78.49
2018-09-01T18:41:13.110Z,77.89
2018-09-01T18:43:42.080Z,79.78
2018-09-01T18:46:11.555Z,81.03
2018-09-01T18:48:40.667Z,81.25
2018-09-01T18:51:09.397Z,81.23
2018-09-01T18:53:38.361Z,81.31
2018-09-01T18:56:07.417Z,81.29
2018-09-01T18:58:37.306Z,82.80
2018-09-01T19:01:07.223Z,81.72
2018-09-01T19:03:37.436Z,82.05
2018-09-01T19:06:07.340Z,82.50
2018-09-01T19:08:36.533Z,83.18
2018-09-01T19:11:05.395Z,82.22
2018-09-01T19:13:35.091Z,80.52
2018-09-01T19:16:03.876Z,80.93
2018-09-01T19:18:33.765Z,83.74
2018-09-01T19:21:02.844Z,84.27
2018-09-01T19:23:31.715Z,83.14
2018-09-01T19:26:00.421Z,82.74
2018-09-01T19:28:29.359Z,83.73
2018-09-01T19:30:58.357Z,84.07
2018-09-01T19:33:28.442Z,83.44
2018-09-01T19:35:59.475Z,82.69
2018-09-01T19:38:28.225Z,84.83
2018-09-01T19:40:57.039Z,84.61
2018-09-01T19:43:27.061Z,84.69
2018-09-01T19:45:56.874Z,84.63
2018-09-01T19:48:26.257Z,84.79
2018-09-01T19:50:55.240Z,85.14
2018-09-01T19:53:24.212Z,85.50
2018-09-01T19:55:53.196Z,85.18
2018-09-01T19:58:22.107Z,85.10
2018-09-01T20:00:51.216Z,84.38
2018-09-01T20:03:20.366Z,83.86
2018-09-01T20:05:49.307Z,83.71
2018-09-01T20:08:19.027Z,84.62
2018-09-01T20:10:48.430Z,85.29
2018-09-01T20:13:17.632Z,85.50
2018-09-01T20:15:46.791Z,85.25
2018-09-01T20:18:17.111Z,86.32
2018-09-01T20:20:46.390Z,87.34
2018-09-01T20:23:16.399Z,87.17
2018-09-01T20:25:46.702Z,87.10
2018-09-01T20:28:15.895Z,87.29
2018-09-01T20:30:46.677Z,87.25
2018-09-01T20:33:16.556Z,88.27
2018-09-01T20:35:51.132Z,87.70
2018-09-01T20:38:20.547Z,87.04
2018-09-01T20:40:50.882Z,88.32
2018-09-01T20:43:19.668Z,88.06
2018-09-01T20:45:48.663Z,87.82
2018-09-01T20:48:17.585Z,87.96
2018-09-01T20:50:46.417Z,88.08
2018-09-01T20:53:15.151Z,88.17
2018-09-01T20:55:43.742Z,89.13
2018-09-01T20:58:12.634Z,89.28
2018-09-01T21:00:41.628Z,88.83
2018-09-01T21:03:10.512Z,89.17
2018-09-01T21:05:39.744Z,88.72
2018-09-01T21:08:08.816Z,88.24
2018-09-01T21:10:39.810Z,88.15
2018-09-01T21:13:09.910Z,89.43
2018-09-01T21:15:40.581Z,89.34
2018-09-01T21:18:09.366Z,89.85
2018-09-01T21:20:38.172Z,90.19
2018-09-01T21:23:07.012Z,90.38
2018-09-01T21:25:35.682Z,90.31
2018-09-01T21:28:04.334Z,90.33
2018-09-01T21:30:33.536Z,90.69
2018-09-01T21:33:03.053Z,91.15
2018-09-01T21:35:31.978Z,91.94
2018-09-01T21:38:00.604Z,91.16
2018-09-01T21:40:30.041Z,91.45
2018-09-01T21:42:59.013Z,91.15
2018-09-01T21:45:28.252Z,91.37
2018-09-01T21:47:57.507Z,91.22
2018-09-01T21:50:27.087Z,91.15
2018-09-01T21:52:55.641Z,92.56
2018-09-01T21:55:25.031Z,92.33
2018-09-01T21:57:54.363Z,92.17
2018-09-01T22:00:24.513Z,92.35
2018-09-01T22:02:53.491Z,92.32
2018-09-01T22:05:25.070Z,92.72
2018-09-01T22:07:53.951Z,93.05
2018-09-01T22:10:24.499Z,93.38
2018-09-01T22:12:53.233Z,93.52
2018-09-01T22:15:22.063Z,93.11
2018-09-01T22:17:50.708Z,93.17
2018-09-01T22:20:20.227Z,93.13
2018-09-01T22:22:50.127Z,92.91
2018-09-01T22:25:19.702Z,93.18
2018-09-01T22:27:48.901Z,93.06
2018-09-01T22:30:18.130Z,93.88
2018-09-01T22:32:46.904Z,93.78
2018-09-01T22:35:15.627Z,93.94
2018-09-01T22:37:44.431Z,94.33
2018-09-01T22:40:13.121Z,94.57
2018-09-01T22:42:42.370Z,94.59
2018-09-01T22:45:12.597Z,94.77
2018-09-01T22:47:41.428Z,94.68
2018-09-01T22:50:11.028Z,94.70
2018-09-01T22:52:39.870Z,94.40
2018-09-01T22:55:08.578Z,94.55
2018-09-01T22:57:37.252Z,94.17
2018-09-01T23:00:06.182Z,94.32
2018-09-01T23:02:35.061Z,94.46
2018-09-01T23:05:03.762Z,94.10
2018-09-01T23:07:32.530Z,93.99
2018-09-01T23:10:01.747Z,93.82
2018-09-01T23:12:30.715Z,94.11
2018-09-01T23:14:59.494Z,93.69
2018-09-01T23:17:28.369Z,93.58
2018-09-01T23:19:57.291Z,93.65
2018-09-01T23:22:25.926Z,93.79
2018-09-01T23:24:54.866Z,94.10
2018-09-01T23:27:23.632Z,93.28
2018-09-01T23:29:52.628Z,93.56
2018-09-01T23:32:22.762Z,93.22
2018-09-01T23:34:51.511Z,93.80
2018-09-01T23:37:21.071Z,94.42
2018-09-01T23:39:50.142Z,94.72
2018-09-01T23:42:19.694Z,94.06
2018-09-01T23:44:48.898Z,94.31
2018-09-01T23:47:18.276Z,94.39
2018-09-01T23:49:47.472Z,93.99
2018-09-01T23:52:16.367Z,93.95
2018-09-01T23:54:44.998Z,94.85
2018-09-01T23:57:14.101Z,94.49
2018-09-01T23:59:43.287Z,94.18
